Time;durP1;ratioP1;P1;durP2;ratioP2;P2;SDS_P1;SDS_P2;PMS_P1;PMS_P2;Temp;Humidity;BMP_temperature;BMP_pressure;BME280_temperature;BME280_humidity;BME280_pressure;Samples;Min_cycle;Max_cycle;Signal;HPM_P1;HPM_P2
2022/05/03 00:00:05;;;;;;;6.83;6.13;;;8.50;99.90;;;;;;5062347;28;20224;-85
2022/05/03 00:03:14;;;;;;;7.30;5.17;;;8.50;99.90;;;;;;5046844;28;20246;-86
2022/05/03 00:06:22;;;;;;;6.13;4.17;;;8.40;99.90;;;;;;4969891;28;20226;-85
2022/05/03 00:09:04;;;;;;;5.87;5.23;;;8.40;99.90;;;;;;5046760;28;20264;-86
2022/05/03 00:12:08;;;;;;;6.60;4.53;;;8.20;99.90;;;;;;5045092;28;20249;-87
2022/05/03 00:14:44;;;;;;;4.60;4.17;;;8.00;99.90;;;;;;4949600;28;20220;-89
2022/05/03 00:17:15;;;;;;;5.43;3.63;;;7.80;99.90;;;;;;5033973;28;20217;-86
2022/05/03 00:19:43;;;;;;;5.20;4.70;;;7.70;99.90;;;;;;5029881;28;20584;-88
2022/05/03 00:22:12;;;;;;;3.90;3.60;;;7.70;99.90;;;;;;5047082;28;20316;-87
2022/05/03 00:24:39;;;;;;;8.70;4.13;;;7.70;99.90;;;;;;5045571;28;20224;-86
2022/05/03 00:27:05;;;;;;;5.37;4.13;;;7.70;99.90;;;;;;5045666;28;20649;-87
2022/05/03 00:29:33;;;;;;;5.87;3.47;;;7.80;99.90;;;;;;5030167;28;20194;-87
2022/05/03 00:32:01;;;;;;;5.13;3.77;;;7.70;99.90;;;;;;5046042;28;20312;-86
2022/05/03 00:34:30;;;;;;;4.30;3.60;;;7.70;99.90;;;;;;5037572;28;20214;-86
2022/05/03 00:36:56;;;;;;;6.93;3.87;;;7.70;99.90;;;;;;5061314;28;20220;-87
2022/05/03 00:39:22;;;;;;;8.93;5.70;;;7.80;99.90;;;;;;5028896;28;20717;-87
2022/05/03 00:42:14;;;;;;;15.77;6.30;;;7.80;99.90;;;;;;5028428;28;20221;-87
2022/05/03 00:44:59;;;;;;;8.00;5.73;;;7.90;99.90;;;;;;5045934;28;20234;-86
2022/05/03 00:47:43;;;;;;;5.67;4.00;;;7.90;99.90;;;;;;5045381;28;20783;-87
2022/05/03 00:50:21;;;;;;;6.50;4.37;;;7.90;99.90;;;;;;5045680;28;20213;-88
2022/05/03 00:53:06;;;;;;;5.83;4.90;;;7.80;99.90;;;;;;5046025;28;20233;-87
2022/05/03 00:56:16;;;;;;;11.80;3.57;;;7.70;99.90;;;;;;5045760;28;20291;-89
2022/05/03 00:59:00;;;;;;;3.40;3.10;;;7.50;99.90;;;;;;5004497;28;20243;-86
2022/05/03 01:01:48;;;;;;;6.73;3.83;;;7.40;99.90;;;;;;4988108;28;20231;-87
2022/05/03 01:04:24;;;;;;;6.07;4.10;;;7.40;99.90;;;;;;5032391;28;20221;-87
2022/05/03 01:07:06;;;;;;;7.60;5.00;;;7.40;99.90;;;;;;5044559;28;20214;-88
2022/05/03 01:09:39;;;;;;;6.30;4.17;;;7.50;99.90;;;;;;5061872;28;20210;-87
2022/05/03 01:12:25;;;;;;;3.10;2.80;;;7.50;99.90;;;;;;5044874;28;20272;-86
2022/05/03 01:15:07;;;;;;;4.47;2.90;;;7.30;99.90;;;;;;5046054;28;20185;-88
2022/05/03 01:18:05;;;;;;;3.83;3.50;;;7.20;99.90;;;;;;5045316;28;20344;-88
2022/05/03 01:20:41;;;;;;;4.63;3.17;;;7.20;99.90;;;;;;5043252;28;20263;-88
2022/05/03 01:23:31;;;;;;;5.67;4.87;;;7.50;99.90;;;;;;5060910;28;20229;-89
2022/05/03 01:26:58;;;;;;;7.23;4.90;;;7.70;99.90;;;;;;5043003;28;20214;-87
2022/05/03 01:29:34;;;;;;;7.30;5.57;;;8.10;99.90;;;;;;4987407;28;20210;-86
2022/05/03 01:32:02;;;;;;;9.53;5.57;;;8.30;99.90;;;;;;4987972;28;20235;-86
2022/05/03 01:34:29;;;;;;;8.07;6.27;;;8.50;99.90;;;;;;5031881;28;20681;-86
2022/05/03 01:37:28;;;;;;;11.80;5.93;;;8.60;99.90;;;;;;5044233;28;20222;-86
2022/05/03 01:40:11;;;;;;;6.53;5.70;;;8.70;99.90;;;;;;5044140;28;20237;-86
2022/05/03 01:42:59;;;;;;;10.87;6.73;;;8.80;99.90;;;;;;5045370;28;20238;-88
2022/05/03 01:45:31;;;;;;;10.03;7.23;;;9.00;99.90;;;;;;5042773;28;20259;-88
2022/05/03 01:51:43;;;;;;;6.07;5.47;;;9.20;99.90;;;;;;5044857;28;20210;-87
2022/05/03 01:54:59;;;;;;;11.33;6.50;;;9.20;99.90;;;;;;5034722;28;20284;-88
2022/05/03 01:57:40;;;;;;;6.63;4.80;;;9.10;99.90;;;;;;5029427;28;20272;-87
2022/05/03 02:00:09;;;;;;;16.37;6.73;;;9.10;99.90;;;;;;5044031;28;20186;-86
2022/05/03 02:02:59;;;;;;;20.03;7.10;;;9.10;99.90;;;;;;5027988;28;20543;-86
2022/05/03 02:05:40;;;;;;;11.60;6.73;;;9.10;99.90;;;;;;5042903;28;20279;-86
2022/05/03 02:08:11;;;;;;;15.70;8.07;;;9.20;99.90;;;;;;5043056;28;20257;-85
2022/05/03 02:10:52;;;;;;;13.40;7.57;;;9.30;99.90;;;;;;5043990;28;20210;-86
2022/05/03 02:16:48;;;;;;;13.33;6.70;;;9.50;99.90;;;;;;5045084;28;20226;-87
2022/05/03 02:19:44;;;;;;;14.23;7.50;;;9.60;99.90;;;;;;5043941;28;20213;-88
2022/05/03 02:22:34;;;;;;;13.80;7.70;;;9.90;99.90;;;;;;5043578;28;20248;-89
2022/05/03 02:25:11;;;;;;;14.50;9.03;;;10.20;99.90;;;;;;5044111;28;20224;-87
2022/05/03 02:27:42;;;;;;;19.53;10.73;;;10.40;99.90;;;;;;5043112;28;20766;-88
2022/05/03 02:30:10;;;;;;;19.13;9.70;;;10.40;99.90;;;;;;5043531;28;20178;-87
2022/05/03 02:32:54;;;;;;;16.37;10.17;;;10.50;99.90;;;;;;5042854;28;20272;-86
2022/05/03 02:35:24;;;;;;;16.90;8.63;;;10.50;99.90;;;;;;5042784;28;20598;-88
2022/05/03 02:37:56;;;;;;;16.97;10.07;;;10.50;99.90;;;;;;5025569;28;20214;-87
2022/05/03 02:40:27;;;;;;;16.30;9.33;;;10.50;99.90;;;;;;5041822;28;20618;-86
2022/05/03 02:42:55;;;;;;;15.57;8.43;;;10.60;99.90;;;;;;5040703;28;20901;-87
2022/05/03 02:45:20;;;;;;;19.27;11.07;;;10.60;99.90;;;;;;5026143;28;20229;-86
2022/05/03 02:47:55;;;;;;;17.37;8.47;;;10.60;99.90;;;;;;5012808;28;20194;-87
2022/05/03 02:50:28;;;;;;;24.60;10.33;;;10.70;99.90;;;;;;5044923;28;20209;-85
2022/05/03 02:53:08;;;;;;;15.53;8.37;;;10.60;99.90;;;;;;5046489;28;20271;-87
2022/05/03 02:55:49;;;;;;;18.80;10.30;;;10.60;99.90;;;;;;5046041;28;20300;-87
2022/05/03 02:58:34;;;;;;;19.07;10.27;;;10.70;99.90;;;;;;5046839;28;20284;-86
2022/05/03 03:03:59;;;;;;;13.60;8.53;;;10.80;99.90;;;;;;5048426;28;20226;-87
2022/05/03 03:06:31;;;;;;;22.07;10.87;;;10.80;99.90;;;;;;5047208;28;20240;-88
2022/05/03 03:08:59;;;;;;;18.97;8.47;;;10.80;99.90;;;;;;5030805;28;20182;-87
2022/05/03 03:11:56;;;;;;;14.20;7.97;;;10.80;99.90;;;;;;5048220;28;20186;-87
2022/05/03 03:14:48;;;;;;;16.37;7.30;;;10.80;99.90;;;;;;5042631;28;20206;-88
2022/05/03 03:17:20;;;;;;;17.43;10.20;;;10.80;99.90;;;;;;5046254;28;20244;-90
2022/05/03 03:20:12;;;;;;;16.50;8.37;;;10.90;99.90;;;;;;5030567;28;20225;-86
2022/05/03 03:22:43;;;;;;;18.07;10.13;;;10.90;99.90;;;;;;5047289;28;20305;-87
2022/05/03 03:25:11;;;;;;;18.70;10.00;;;10.90;99.90;;;;;;5046968;28;20310;-88
2022/05/03 03:27:38;;;;;;;24.47;10.17;;;10.90;99.90;;;;;;5046844;28;20224;-86
2022/05/03 03:30:06;;;;;;;20.53;11.53;;;10.90;99.90;;;;;;5012496;28;20189;-87
2022/05/03 03:32:35;;;;;;;26.17;12.30;;;10.90;99.90;;;;;;5047851;28;20232;-87
2022/05/03 03:35:01;;;;;;;17.00;8.23;;;10.90;99.90;;;;;;5046830;28;20222;-87
2022/05/03 03:37:29;;;;;;;10.10;7.40;;;10.90;99.90;;;;;;5046026;28;20221;-88
2022/05/03 03:39:55;;;;;;;15.10;9.17;;;10.90;99.90;;;;;;5030242;28;20230;-87
2022/05/03 03:42:21;;;;;;;14.53;7.47;;;10.90;99.90;;;;;;5046470;28;20306;-87
2022/05/03 03:44:48;;;;;;;18.53;9.40;;;10.90;99.90;;;;;;5045957;28;20197;-87
2022/05/03 03:47:17;;;;;;;16.97;9.27;;;10.90;99.90;;;;;;5030121;28;20217;-88
2022/05/03 03:49:44;;;;;;;16.10;8.70;;;10.90;99.90;;;;;;5030340;28;20253;-86
2022/05/03 03:52:10;;;;;;;17.67;8.27;;;10.90;99.90;;;;;;5030247;28;20308;-87
2022/05/03 03:54:40;;;;;;;19.63;9.57;;;10.90;99.90;;;;;;5046179;28;20222;-87
2022/05/03 03:57:07;;;;;;;18.23;9.20;;;10.90;99.90;;;;;;5046526;28;20185;-90
2022/05/03 03:59:33;;;;;;;22.53;8.90;;;10.90;99.90;;;;;;5046241;28;20655;-85
2022/05/03 04:02:01;;;;;;;16.60;9.93;;;10.90;99.90;;;;;;5029641;28;20301;-86
2022/05/03 04:04:30;;;;;;;24.23;9.43;;;10.90;99.90;;;;;;5045536;28;20256;-90
2022/05/03 04:06:56;;;;;;;18.53;9.93;;;10.90;99.90;;;;;;5046776;28;20237;-88
2022/05/03 04:09:22;;;;;;;14.87;7.97;;;10.90;99.90;;;;;;5045975;28;20206;-86
2022/05/03 04:11:48;;;;;;;15.83;8.80;;;10.90;99.90;;;;;;5029755;28;20220;-87
2022/05/03 04:14:14;;;;;;;12.67;7.60;;;10.90;99.90;;;;;;5045980;28;21107;-87
2022/05/03 04:16:41;;;;;;;19.60;9.10;;;10.90;99.90;;;;;;5046369;28;20217;-88
2022/05/03 04:19:08;;;;;;;15.63;9.60;;;10.80;99.90;;;;;;5043072;28;20233;-89
2022/05/03 04:21:34;;;;;;;15.13;7.93;;;10.90;99.90;;;;;;5025839;28;20362;-89
2022/05/03 04:24:00;;;;;;;21.10;9.63;;;10.90;99.90;;;;;;5009943;28;20216;-87
2022/05/03 04:26:27;;;;;;;17.57;8.20;;;10.90;99.90;;;;;;5044383;28;20190;-87
2022/05/03 04:29:00;;;;;;;16.63;7.80;;;10.90;99.90;;;;;;5030764;28;20252;-88
2022/05/03 04:31:34;;;;;;;17.13;7.17;;;10.90;99.90;;;;;;5049184;28;20229;-87
2022/05/03 04:34:02;;;;;;;13.17;7.57;;;10.90;99.90;;;;;;5049346;28;20233;-89
2022/05/03 04:36:32;;;;;;;11.03;6.63;;;10.90;99.90;;;;;;5048934;28;20224;-88
2022/05/03 04:38:59;;;;;;;10.80;6.17;;;10.90;99.90;;;;;;5050408;28;20197;-87
2022/05/03 04:41:25;;;;;;;13.10;6.10;;;10.90;99.90;;;;;;5052077;28;20230;-87
2022/05/03 04:43:51;;;;;;;18.87;6.13;;;10.80;99.90;;;;;;5050436;28;20256;-88
2022/05/03 04:46:18;;;;;;;15.50;7.97;;;10.80;99.90;;;;;;5049060;28;20246;-89
2022/05/03 04:48:43;;;;;;;9.20;4.50;;;10.80;99.90;;;;;;5031797;28;20205;-90
2022/05/03 04:51:20;;;;;;;11.40;5.90;;;10.70;99.90;;;;;;5048941;28;20248;-89
2022/05/03 04:53:47;;;;;;;5.23;3.67;;;10.70;99.90;;;;;;5049403;28;20185;-88
2022/05/03 04:56:20;;;;;;;6.87;4.53;;;10.70;99.90;;;;;;5031831;28;20725;-88
2022/05/03 04:58:48;;;;;;;7.50;4.67;;;10.70;99.90;;;;;;5033262;28;20696;-89
2022/05/03 05:01:15;;;;;;;8.93;5.20;;;10.70;99.90;;;;;;5031149;28;20725;-88
2022/05/03 05:03:42;;;;;;;7.67;4.97;;;10.70;99.90;;;;;;5048324;28;20220;-89
2022/05/03 05:06:09;;;;;;;6.03;3.97;;;10.80;99.90;;;;;;5047550;28;20197;-91
2022/05/03 05:08:37;;;;;;;7.47;4.27;;;10.80;99.90;;;;;;5047776;28;20202;-87
2022/05/03 05:11:04;;;;;;;7.13;4.20;;;10.70;99.90;;;;;;5030429;28;20222;-90
2022/05/03 05:13:30;;;;;;;11.77;5.37;;;10.70;99.90;;;;;;5029464;28;20626;-87
2022/05/03 05:15:55;;;;;;;13.30;6.17;;;10.80;99.90;;;;;;5044965;28;20241;-88
2022/05/03 05:18:21;;;;;;;4.93;3.37;;;10.80;99.90;;;;;;5029126;28;20245;-91
2022/05/03 05:20:47;;;;;;;5.13;2.77;;;10.80;99.90;;;;;;5030136;28;20220;-90
2022/05/03 05:23:13;;;;;;;6.40;3.50;;;10.80;99.90;;;;;;5046187;28;20230;-86
2022/05/03 05:25:38;;;;;;;9.13;3.80;;;10.80;99.90;;;;;;5047103;28;20539;-89
2022/05/03 05:28:04;;;;;;;5.20;2.63;;;10.80;99.90;;;;;;5031059;28;20217;-89
2022/05/03 05:30:30;;;;;;;5.53;3.60;;;10.80;99.90;;;;;;5031361;28;20563;-88
2022/05/03 05:32:56;;;;;;;5.13;2.30;;;10.70;99.90;;;;;;5047961;28;20240;-88
2022/05/03 05:35:24;;;;;;;5.27;1.37;;;10.60;99.90;;;;;;5048861;28;20174;-87
2022/05/03 05:37:50;;;;;;;2.97;2.00;;;10.50;99.90;;;;;;5029109;28;20221;-86
2022/05/03 05:40:15;;;;;;;2.20;2.00;;;10.40;99.90;;;;;;5045647;28;20719;-89
2022/05/03 05:42:42;;;;;;;7.13;3.37;;;10.20;99.90;;;;;;5010117;28;20234;-90
2022/05/03 05:45:08;;;;;;;6.37;2.97;;;10.20;99.90;;;;;;5044095;28;20197;-87
2022/05/03 05:47:34;;;;;;;4.80;2.00;;;10.20;99.90;;;;;;5044202;28;20180;-86
2022/05/03 05:49:59;;;;;;;3.80;2.10;;;10.00;99.90;;;;;;5026786;28;20710;-86
2022/05/03 05:55:09;;;;;;;7.13;2.70;;;10.00;99.90;;;;;;5043526;28;20210;-86
2022/05/03 05:57:35;;;;;;;2.37;2.13;;;10.00;99.90;;;;;;5027012;28;20250;-85
2022/05/03 06:00:01;;;;;;;3.90;2.40;;;10.00;99.90;;;;;;5026661;28;20194;-86
2022/05/03 06:02:28;;;;;;;10.57;2.77;;;10.00;99.90;;;;;;5043735;28;20730;-86
2022/05/03 06:04:54;;;;;;;4.00;2.47;;;10.00;99.90;;;;;;5027185;28;20226;-84
2022/05/03 06:07:20;;;;;;;2.63;1.80;;;9.90;99.90;;;;;;5042130;28;20232;-87
2022/05/03 06:09:45;;;;;;;6.13;3.53;;;10.00;99.90;;;;;;5009599;28;20275;-92
2022/05/03 06:12:11;;;;;;;9.73;3.30;;;10.00;99.90;;;;;;5042329;28;20197;-86
2022/05/03 06:14:37;;;;;;;4.47;1.90;;;10.00;99.90;;;;;;5043485;28;20194;-88
2022/05/03 06:17:03;;;;;;;4.30;2.27;;;9.90;99.90;;;;;;5044304;28;20214;-86
2022/05/03 06:19:28;;;;;;;6.17;2.13;;;10.00;99.90;;;;;;5042584;28;20220;-84
2022/05/03 06:21:54;;;;;;;17.67;2.47;;;10.00;99.90;;;;;;5028013;28;20732;-86
2022/05/03 06:24:20;;;;;;;6.50;1.30;;;10.10;99.90;;;;;;5029631;28;20295;-86
2022/05/03 06:26:47;;;;;;;2.30;1.10;;;10.10;99.90;;;;;;5047183;28;20190;-85
2022/05/03 06:29:12;;;;;;;3.20;1.50;;;10.10;99.90;;;;;;5030512;28;20303;-85
2022/05/03 06:31:39;;;;;;;1.60;1.50;;;10.10;99.90;;;;;;5047897;28;20257;-84
2022/05/03 06:34:05;;;;;;;9.17;2.10;;;10.10;99.90;;;;;;5047056;28;20844;-87
2022/05/03 06:36:33;;;;;;;2.40;1.33;;;10.20;99.90;;;;;;5048212;28;20578;-85
2022/05/03 06:38:59;;;;;;;5.53;2.30;;;10.20;99.90;;;;;;5046913;28;20541;-86
2022/05/03 06:41:25;;;;;;;1.73;1.37;;;10.30;99.90;;;;;;5029567;28;20237;-87
2022/05/03 06:43:50;;;;;;;1.57;1.30;;;10.30;99.90;;;;;;5045909;28;20696;-86
2022/05/03 06:46:17;;;;;;;5.53;1.70;;;10.40;99.90;;;;;;5046513;28;20213;-90
2022/05/03 06:48:42;;;;;;;9.93;2.20;;;10.40;99.90;;;;;;5047693;28;20228;-86
2022/05/03 06:51:08;;;;;;;5.07;1.60;;;10.40;99.90;;;;;;5047850;28;20186;-85
2022/05/03 06:53:34;;;;;;;2.57;1.37;;;10.40;99.90;;;;;;5030662;28;20549;-84
2022/05/03 06:56:00;;;;;;;2.13;1.67;;;10.50;99.90;;;;;;5046608;28;20562;-86
2022/05/03 06:58:25;;;;;;;0.93;0.93;;;10.50;99.90;;;;;;5029776;28;20228;-85
2022/05/03 07:00:52;;;;;;;3.63;2.00;;;10.50;99.90;;;;;;5046462;28;20797;-85
2022/05/03 07:03:17;;;;;;;5.63;1.60;;;10.60;99.90;;;;;;5029877;28;20241;-88
2022/05/03 07:05:44;;;;;;;6.43;1.93;;;10.70;99.90;;;;;;5030142;28;20511;-85
2022/05/03 07:08:10;;;;;;;5.67;1.93;;;10.70;99.90;;;;;;5045561;28;20214;-87
2022/05/03 07:10:37;;;;;;;1.70;1.43;;;10.80;99.90;;;;;;5029330;28;20253;-85
2022/05/03 07:13:04;;;;;;;1.50;1.40;;;10.90;99.90;;;;;;5047653;28;20220;-85
2022/05/03 07:15:30;;;;;;;5.00;1.27;;;11.00;99.90;;;;;;5047296;28;20220;-85
2022/05/03 07:23:26;;;;;;;2.97;0.93;;;10.80;99.90;;;;;;5046873;28;20221;-89
2022/05/03 07:25:53;;;;;;;8.00;1.17;;;10.80;99.90;;;;;;5029594;28;20222;-85
2022/05/03 07:28:19;;;;;;;4.40;1.50;;;11.00;99.90;;;;;;5047768;28;20226;-85
2022/05/03 07:30:45;;;;;;;2.73;1.13;;;11.10;99.90;;;;;;5028876;28;20271;-86
2022/05/03 07:33:11;;;;;;;3.87;2.47;;;11.30;99.90;;;;;;5029493;28;20182;-87
2022/05/03 07:35:37;;;;;;;1.93;1.57;;;11.50;99.90;;;;;;5063099;28;20189;-87
2022/05/03 07:38:03;;;;;;;2.83;1.20;;;11.80;99.90;;;;;;5029573;28;20213;-91
2022/05/03 07:40:29;;;;;;;2.20;1.17;;;12.00;99.90;;;;;;5045613;28;20356;-86
2022/05/03 07:42:55;;;;;;;3.83;1.50;;;12.50;99.90;;;;;;5046063;28;20233;-89
2022/05/03 07:45:21;;;;;;;2.57;1.17;;;12.50;99.90;;;;;;5047733;28;20214;-89
2022/05/03 07:47:47;;;;;;;2.57;1.03;;;12.50;99.90;;;;;;5033932;28;20182;-87
2022/05/03 07:50:13;;;;;;;10.20;1.13;;;12.20;99.90;;;;;;5034103;28;20301;-85
2022/05/03 07:52:39;;;;;;;5.10;1.90;;;12.10;99.90;;;;;;5050755;28;20316;-87
2022/05/03 07:55:07;;;;;;;3.33;1.67;;;12.10;99.90;;;;;;5034427;28;20226;-88
2022/05/03 07:57:34;;;;;;;4.40;1.50;;;12.20;99.90;;;;;;5065696;28;20220;-89
2022/05/03 08:00:00;;;;;;;1.63;1.30;;;12.30;99.90;;;;;;5047492;28;20182;-86
2022/05/03 08:02:26;;;;;;;7.00;1.57;;;12.50;99.90;;;;;;5049318;28;20206;-90
2022/05/03 08:04:53;;;;;;;2.80;1.20;;;12.70;99.90;;;;;;5047480;28;20698;-93
2022/05/03 08:07:20;;;;;;;9.30;1.10;;;12.60;99.90;;;;;;5064172;28;20218;-88
2022/05/03 08:09:47;;;;;;;4.40;1.53;;;12.80;99.90;;;;;;5048903;28;20213;-89
2022/05/03 08:12:13;;;;;;;0.97;0.83;;;12.80;99.90;;;;;;5049366;28;20292;-86
2022/05/03 08:14:39;;;;;;;4.40;1.57;;;12.80;99.90;;;;;;5061756;28;20190;-87
2022/05/03 08:17:05;;;;;;;4.23;1.53;;;12.50;99.90;;;;;;5045381;28;20232;-87
2022/05/03 08:19:31;;;;;;;4.97;1.40;;;12.40;99.90;;;;;;5046248;28;20218;-91
2022/05/03 08:21:57;;;;;;;1.60;1.30;;;12.50;99.90;;;;;;5045868;28;20218;-86
2022/05/03 08:24:24;;;;;;;1.70;1.07;;;12.90;99.90;;;;;;5061370;28;20222;-86
2022/05/03 08:26:50;;;;;;;4.23;2.20;;;12.60;99.90;;;;;;5044961;28;20186;-86
2022/05/03 08:29:16;;;;;;;5.13;1.07;;;12.90;99.90;;;;;;5027658;28;20279;-91
2022/05/03 08:31:42;;;;;;;5.20;1.40;;;12.80;99.90;;;;;;5027996;28;20217;-89
2022/05/03 08:34:08;;;;;;;0.93;0.93;;;13.20;99.90;;;;;;5028810;28;20683;-86
2022/05/03 08:36:34;;;;;;;8.67;2.03;;;13.30;99.90;;;;;;5028656;28;20217;-87
2022/05/03 08:42:06;;;;;;;1.73;1.20;;;13.10;99.90;;;;;;5045057;28;20899;-87
2022/05/03 08:44:34;;;;;;;2.40;1.07;;;13.20;99.90;;;;;;5045509;28;20259;-89
2022/05/03 08:47:02;;;;;;;2.10;1.00;;;12.70;99.90;;;;;;5044746;28;20214;-88
2022/05/03 08:49:44;;;;;;;3.00;0.93;;;12.90;99.90;;;;;;5044783;28;20222;-86
2022/05/03 08:52:11;;;;;;;8.40;1.60;;;13.30;99.90;;;;;;5045520;28;20764;-89
2022/05/03 08:54:38;;;;;;;1.47;1.00;;;13.70;99.90;;;;;;5045019;28;20605;-89
2022/05/03 08:57:07;;;;;;;3.23;0.97;;;13.70;99.90;;;;;;5028280;28;20190;-86
2022/05/03 08:59:37;;;;;;;5.23;1.20;;;13.40;99.90;;;;;;5013827;28;20185;-89
2022/05/03 09:02:04;;;;;;;1.00;0.53;;;13.60;99.90;;;;;;5045153;28;20313;-90
2022/05/03 09:04:31;;;;;;;3.60;1.43;;;13.50;99.90;;;;;;5044175;28;20320;-91
2022/05/03 09:06:56;;;;;;;5.27;0.97;;;13.70;99.90;;;;;;5043715;28;20256;-85
2022/05/03 09:09:22;;;;;;;3.80;1.20;;;13.60;99.90;;;;;;5044431;28;20291;-85
2022/05/03 09:11:50;;;;;;;5.67;0.90;;;13.80;99.90;;;;;;5044412;28;20634;-85
2022/05/03 09:14:40;;;;;;;8.37;1.20;;;13.70;99.90;;;;;;5045241;28;20982;-84
2022/05/03 09:17:06;;;;;;;3.17;1.07;;;14.10;99.90;;;;;;5030966;28;20217;-85
2022/05/03 09:19:33;;;;;;;1.57;0.90;;;14.20;99.90;;;;;;5026435;28;20233;-86
2022/05/03 09:24:58;;;;;;;2.97;1.17;;;13.80;99.90;;;;;;5045039;28;20221;-84
2022/05/03 09:27:24;;;;;;;4.00;1.37;;;13.80;99.90;;;;;;5044901;28;20213;-85
2022/05/03 09:30:10;;;;;;;8.70;1.63;;;14.00;99.90;;;;;;5044320;28;20242;-85
2022/05/03 09:32:40;;;;;;;3.17;0.73;;;14.20;99.90;;;;;;5043791;28;20240;-85
2022/05/03 09:35:26;;;;;;;5.30;1.63;;;14.20;99.90;;;;;;5043768;28;20285;-85
2022/05/03 09:37:52;;;;;;;0.83;0.80;;;13.80;99.90;;;;;;5043059;28;20222;-85
2022/05/03 09:40:18;;;;;;;3.03;0.87;;;13.40;99.90;;;;;;5042798;28;20237;-84
2022/05/03 09:42:52;;;;;;;4.53;1.03;;;13.40;99.90;;;;;;5042954;28;20306;-85
2022/05/03 09:45:22;;;;;;;1.87;1.13;;;13.40;99.90;;;;;;5043689;28;20225;-84
2022/05/03 09:47:54;;;;;;;0.87;0.83;;;13.20;99.90;;;;;;5043886;28;20186;-83
2022/05/03 09:50:42;;;;;;;1.60;0.90;;;13.50;99.90;;;;;;5044116;28;20228;-85
2022/05/03 09:53:13;;;;;;;0.60;0.60;;;13.90;99.90;;;;;;5043224;28;20214;-84
2022/05/03 09:55:40;;;;;;;4.13;0.87;;;13.60;99.90;;;;;;5043462;28;20225;-84
2022/05/03 09:58:10;;;;;;;0.53;0.50;;;14.40;99.90;;;;;;5043946;28;20229;-83
2022/05/03 10:00:42;;;;;;;4.30;1.20;;;14.40;99.90;;;;;;5043672;28;20283;-83
2022/05/03 10:03:09;;;;;;;1.10;1.00;;;14.40;99.90;;;;;;5059477;28;20218;-84
2022/05/03 10:05:37;;;;;;;1.73;1.37;;;14.50;99.90;;;;;;5042899;28;20198;-84
2022/05/03 10:08:03;;;;;;;13.77;1.13;;;14.10;99.90;;;;;;5041283;28;20567;-85
2022/05/03 10:10:29;;;;;;;4.70;1.00;;;14.20;99.90;;;;;;5042421;28;20214;-85
2022/05/03 10:12:55;;;;;;;5.23;0.70;;;14.50;99.90;;;;;;5023996;28;20280;-84
2022/05/03 10:21:21;;;;;;;3.90;0.83;;;16.00;99.90;;;;;;5023663;28;20298;-87
2022/05/03 10:24:04;;;;;;;2.07;0.97;;;15.30;99.90;;;;;;5043345;28;20351;-85
2022/05/03 10:26:56;;;;;;;1.00;1.00;;;15.40;99.90;;;;;;5042393;28;20217;-83
2022/05/03 10:29:23;;;;;;;0.63;0.47;;;15.00;99.90;;;;;;5042486;28;20239;-88
2022/05/03 10:32:02;;;;;;;2.03;0.90;;;14.60;99.90;;;;;;5044131;28;20263;-85
2022/05/03 10:34:47;;;;;;;0.80;0.60;;;14.10;99.90;;;;;;5043756;28;20220;-85
2022/05/03 10:37:16;;;;;;;0.87;0.87;;;14.70;99.90;;;;;;5042966;28;20263;-86
2022/05/03 10:39:56;;;;;;;2.13;0.80;;;14.80;99.90;;;;;;5042294;28;20222;-85
2022/05/03 10:42:29;;;;;;;1.43;0.80;;;15.10;99.90;;;;;;5043659;28;20229;-85
2022/05/03 10:45:03;;;;;;;1.47;1.00;;;15.10;99.90;;;;;;5043740;28;20681;-85
2022/05/03 10:47:49;;;;;;;1.03;0.93;;;13.70;99.90;;;;;;5042787;28;20798;-86
2022/05/03 10:50:18;;;;;;;0.73;0.60;;;13.70;99.90;;;;;;5043835;28;20237;-85
2022/05/03 10:52:54;;;;;;;0.80;0.80;;;13.20;99.90;;;;;;5042183;28;20364;-84
2022/05/03 10:55:25;;;;;;;2.00;0.90;;;13.20;99.90;;;;;;5044692;28;20221;-85
2022/05/03 10:58:20;;;;;;;4.37;1.10;;;13.40;99.90;;;;;;5043426;28;20206;-88
2022/05/03 11:01:20;;;;;;;2.80;0.60;;;14.00;99.90;;;;;;5059882;28;20693;-89
2022/05/03 11:03:48;;;;;;;0.40;0.40;;;13.90;99.90;;;;;;5042502;28;20280;-91
2022/05/03 11:06:18;;;;;;;0.97;0.80;;;13.40;99.90;;;;;;5043776;28;20221;-90
2022/05/03 11:09:09;;;;;;;1.10;1.00;;;13.20;99.90;;;;;;5046727;28;20182;-89
2022/05/03 11:11:39;;;;;;;6.27;1.53;;;13.30;99.90;;;;;;5048199;28;20202;-89
2022/05/03 11:14:21;;;;;;;2.70;1.50;;;13.50;99.90;;;;;;5048437;28;20226;-90
2022/05/03 11:17:11;;;;;;;6.23;0.87;;;13.60;99.90;;;;;;5064263;28;20708;-91
2022/05/03 11:19:51;;;;;;;1.37;0.63;;;13.20;99.90;;;;;;5046978;28;20222;-89
2022/05/03 11:22:25;;;;;;;5.17;1.03;;;14.10;99.90;;;;;;5048255;28;20225;-90
2022/05/03 11:24:54;;;;;;;1.03;0.63;;;14.40;99.90;;;;;;5030625;28;20527;-90
2022/05/03 11:27:21;;;;;;;0.77;0.77;;;14.70;99.90;;;;;;5047861;28;20720;-90
2022/05/03 11:29:49;;;;;;;0.87;0.70;;;14.60;99.90;;;;;;5047415;28;20228;-90
2022/05/03 11:32:25;;;;;;;0.77;0.77;;;14.20;99.90;;;;;;5029590;28;20553;-92
2022/05/03 11:34:58;;;;;;;1.63;1.07;;;13.70;99.90;;;;;;5046933;28;20214;-90
2022/05/03 11:37:24;;;;;;;0.90;0.90;;;13.70;99.90;;;;;;5031818;28;20229;-89
2022/05/03 11:39:52;;;;;;;14.90;1.30;;;14.40;99.90;;;;;;5046283;28;20248;-92
2022/05/03 11:42:24;;;;;;;1.57;1.03;;;14.40;99.90;;;;;;5031405;28;20229;-90
2022/05/03 11:45:01;;;;;;;0.90;0.50;;;14.00;99.90;;;;;;5049430;28;20209;-90
2022/05/03 11:47:28;;;;;;;3.73;0.73;;;14.00;99.90;;;;;;5048033;28;20220;-89
2022/05/03 11:49:57;;;;;;;1.10;1.00;;;14.10;99.90;;;;;;5047417;28;20233;-91
2022/05/03 11:57:58;;;;;;;1.00;0.80;;;14.10;99.90;;;;;;5049391;28;20274;-92
2022/05/03 12:00:24;;;;;;;3.23;0.80;;;14.50;99.90;;;;;;5065213;28;20241;-90
2022/05/03 12:02:52;;;;;;;1.00;1.00;;;14.10;99.90;;;;;;5048620;28;20615;-91
2022/05/03 12:05:21;;;;;;;0.73;0.60;;;14.40;99.90;;;;;;5050922;28;20229;-93
2022/05/03 12:07:57;;;;;;;2.50;0.70;;;14.00;99.90;;;;;;5048176;28;20340;-93
2022/05/03 12:10:38;;;;;;;2.67;1.20;;;13.30;99.90;;;;;;5049075;28;20217;-91
2022/05/03 12:13:12;;;;;;;2.50;1.33;;;13.80;99.90;;;;;;5049918;28;20225;-91
2022/05/03 12:15:58;;;;;;;1.80;1.40;;;14.00;99.90;;;;;;5047567;28;20205;-90
2022/05/03 12:18:36;;;;;;;3.07;0.97;;;14.50;99.90;;;;;;5048849;28;20228;-92
2022/05/03 12:21:17;;;;;;;2.20;1.67;;;13.90;99.90;;;;;;5048927;28;20194;-91
2022/05/03 12:23:48;;;;;;;2.50;0.80;;;14.00;99.90;;;;;;5048386;28;20296;-92
2022/05/03 12:26:21;;;;;;;4.03;1.37;;;14.10;99.90;;;;;;5047567;28;20236;-94
2022/05/03 12:28:54;;;;;;;1.63;1.13;;;14.20;99.90;;;;;;5062745;28;20232;-91
2022/05/03 12:31:23;;;;;;;3.83;1.37;;;14.40;99.90;;;;;;5045912;28;20261;-92
2022/05/03 12:33:56;;;;;;;1.77;0.87;;;14.00;99.90;;;;;;5046518;28;20221;-91
2022/05/03 12:36:36;;;;;;;3.00;1.43;;;13.40;99.90;;;;;;5047752;28;20213;-91
2022/05/03 12:39:19;;;;;;;2.90;0.70;;;13.50;99.90;;;;;;5047184;28;20189;-92
2022/05/03 12:41:53;;;;;;;1.93;0.87;;;13.60;99.90;;;;;;5045536;28;20233;-90
2022/05/03 12:44:21;;;;;;;2.40;0.60;;;13.70;99.90;;;;;;5062623;28;21062;-89
2022/05/03 12:46:50;;;;;;;0.60;0.60;;;13.80;99.90;;;;;;5045609;28;20217;-89
2022/05/03 12:49:16;;;;;;;2.93;1.00;;;13.00;99.90;;;;;;5045836;28;20218;-89
2022/05/03 12:51:48;;;;;;;7.63;1.07;;;13.30;99.90;;;;;;5045884;28;20210;-91
2022/05/03 12:54:14;;;;;;;1.73;0.90;;;13.70;99.90;;;;;;5045901;28;20186;-89
2022/05/03 12:59:28;;;;;;;1.47;1.03;;;14.00;99.90;;;;;;5046324;28;20214;-92
2022/05/03 13:01:55;;;;;;;2.03;0.97;;;14.30;99.90;;;;;;5045315;28;20218;-89
2022/05/03 13:04:22;;;;;;;0.97;0.77;;;14.30;99.90;;;;;;5028669;28;20248;-89
2022/05/03 13:06:49;;;;;;;0.70;0.70;;;14.40;99.90;;;;;;5044874;28;20378;-89
2022/05/03 13:09:15;;;;;;;5.60;0.93;;;14.20;99.90;;;;;;5044553;28;20221;-89
2022/05/03 13:11:41;;;;;;;0.60;0.60;;;14.20;99.90;;;;;;5044995;28;20215;-91
2022/05/03 13:14:10;;;;;;;0.83;0.70;;;14.00;99.90;;;;;;5044230;28;20256;-88
2022/05/03 13:16:37;;;;;;;2.23;1.00;;;13.80;99.90;;;;;;5044460;28;20226;-90
2022/05/03 13:19:03;;;;;;;2.60;1.20;;;14.00;99.90;;;;;;5044764;28;20245;-90
2022/05/03 13:21:30;;;;;;;1.73;1.10;;;13.90;99.90;;;;;;5044765;28;20213;-89
2022/05/03 13:23:55;;;;;;;1.20;1.10;;;13.80;99.90;;;;;;5044676;28;20229;-91
2022/05/03 13:26:22;;;;;;;4.93;1.30;;;13.90;99.90;;;;;;5045593;28;20187;-90
2022/05/03 13:28:48;;;;;;;1.90;1.23;;;13.70;99.90;;;;;;5044438;28;20260;-90
2022/05/03 13:31:14;;;;;;;2.07;0.90;;;13.50;99.90;;;;;;5044509;28;20221;-90
2022/05/03 13:33:42;;;;;;;0.90;0.80;;;13.60;99.90;;;;;;5043886;28;20562;-88
2022/05/03 13:41:37;;;;;;;1.10;1.00;;;13.40;99.90;;;;;;5044089;28;20261;-88
2022/05/03 13:44:04;;;;;;;4.17;0.97;;;13.40;99.90;;;;;;5044478;28;20260;-90
2022/05/03 13:46:33;;;;;;;2.00;1.17;;;13.60;99.90;;;;;;5044746;28;20236;-88
2022/05/03 13:48:58;;;;;;;1.97;1.20;;;13.60;99.90;;;;;;5011433;28;20229;-89
2022/05/03 13:51:24;;;;;;;1.33;0.87;;;13.70;99.90;;;;;;5044341;28;21062;-90